Saturday, July 26, 2014, 3:06 AM EDT

KSHD, Staunton / Shenandoah

Location: Weyers Cave, VA, United States Lat: 38.267
Local Time: 3:06 AM EDT ( 7:06 GMT) Lon: -78.9
Time Zone: US/Eastern Elev: 1200 ft

Show me the last for .
Show Decoded

2014-07-26 02:35 METAR KSHD 260635Z AUTO 16004KT 10SM SCT034 19/17 A3004 RMK AO2 T01920168 =
2014-07-26 02:15 METAR KSHD 260615Z AUTO 00000KT 10SM SCT036 19/17 A3005 RMK AO2 T01860166 =
2014-07-26 01:55 METAR KSHD 260555Z AUTO 00000KT 10SM CLR 19/17 A3006 RMK AO2 T01850165 10245
                 20182 402690165 =
2014-07-26 01:35 METAR KSHD 260535Z AUTO 00000KT 10SM CLR 19/17 A3006 RMK AO2 T01900167 =
2014-07-26 01:15 METAR KSHD 260515Z AUTO 00000KT 10SM CLR 19/17 A3006 RMK AO2 T01910167 =
2014-07-26 00:55 METAR KSHD 260455Z AUTO 00000KT 10SM CLR 18/16 A3006 RMK AO2 T01830164 =
2014-07-26 00:35 METAR KSHD 260435Z AUTO 00000KT 10SM CLR 19/16 A3006 RMK AO2 T01860163 =
2014-07-26 00:15 METAR KSHD 260415Z AUTO 00000KT 10SM CLR 19/17 A3006 RMK AO2 T01880165 =
2014-07-25 23:35 METAR KSHD 260335Z AUTO 00000KT 10SM CLR 19/16 A3006 RMK AO2 T01880162 =
2014-07-25 23:15 METAR KSHD 260315Z AUTO 00000KT 10SM CLR 19/16 A3006 RMK AO2 T01920164 =
2014-07-25 22:55 METAR KSHD 260255Z AUTO 00000KT 10SM CLR 20/17 A3005 RMK AO2 T02010165 =
2014-07-25 22:35 METAR KSHD 260235Z AUTO 00000KT 10SM CLR 21/17 A3005 RMK AO2 T02050165 =
2014-07-25 22:15 METAR KSHD 260215Z AUTO 00000KT 10SM CLR 21/16 A3005 RMK AO2 T02100162 =
2014-07-25 21:55 METAR KSHD 260155Z AUTO 00000KT 10SM CLR 22/16 A3006 RMK AO2 T02160161 =
2014-07-25 21:35 METAR KSHD 260135Z AUTO 16003KT 10SM CLR 22/16 A3006 RMK AO2 T02180163 =
2014-07-25 21:15 METAR KSHD 260115Z AUTO 17003KT 10SM CLR 22/17 A3005 RMK AO2 T02220166 =
2014-07-25 20:55 METAR KSHD 260055Z AUTO 00000KT 10SM CLR 23/17 A3005 RMK AO2 T02270169 =
2014-07-25 20:35 METAR KSHD 260035Z AUTO 00000KT 10SM CLR 23/17 A3006 RMK AO2 T02320170 =
2014-07-25 20:15 METAR KSHD 260015Z AUTO 00000KT 10SM CLR 24/17 A3006 RMK AO2 T02380172 =
2014-07-25 19:55 METAR KSHD 252355Z AUTO 15003KT 10SM CLR 25/17 A3006 RMK AO2 T02450169 10269
                 20245 =
2014-07-25 19:15 METAR KSHD 252315Z AUTO 16006KT 10SM CLR 25/16 A3005 RMK AO2 T02510162 =
2014-07-25 18:55 METAR KSHD 252255Z AUTO 17008KT 10SM CLR 26/16 A3004 RMK AO2 T02580160 =
2014-07-25 18:35 METAR KSHD 252235Z AUTO 16005KT 10SM CLR 26/16 A3004 RMK AO2 T02640159 =
2014-07-25 18:15 METAR KSHD 252215Z AUTO 15006KT 10SM CLR 27/16 A3004 RMK AO2 T02650155 =
2014-07-25 17:55 METAR KSHD 252155Z AUTO 15005KT 10SM CLR 27/16 A3003 RMK AO2 T02660157 =
2014-07-25 17:35 METAR KSHD 252135Z AUTO 16005KT 10SM CLR 27/16 A3004 RMK AO2 T02650159 =
2014-07-25 17:15 METAR KSHD 252115Z AUTO 16005KT 10SM SCT043 SCT050 SCT065 27/16 A3005 RMK AO2
                 T02660159 =
2014-07-25 16:55 METAR KSHD 252055Z AUTO 18005KT 10SM SCT037 SCT048 BKN060 27/16 A3005 RMK AO2
                 T02680158 =
2014-07-25 16:35 METAR KSHD 252035Z AUTO 14003KT 10SM SCT037 SCT060 26/16 A3004 RMK AO2 T02640159
                 =
2014-07-25 16:15 METAR KSHD 252015Z AUTO 14005KT 10SM SCT038 SCT050 27/16 A3004 RMK AO2 T02660157
                 =
2014-07-25 15:55 METAR KSHD 251955Z AUTO 15005KT 10SM SCT050 27/16 A3004 RMK AO2 T02690157 =
2014-07-25 15:35 METAR KSHD 251935Z AUTO 11005KT 10SM SCT049 26/15 A3004 RMK AO2 T02580150 =
2014-07-25 15:15 METAR KSHD 251915Z AUTO 16006KT 10SM SCT041 BKN049 26/15 A3005 RMK AO2 T02560148
                 =
2014-07-25 14:35 METAR KSHD 251835Z AUTO 04003KT 10SM SCT039 BKN049 26/15 A3006 RMK AO2 T02640148
                 =
2014-07-25 14:15 METAR KSHD 251815Z AUTO 17004KT 10SM BKN039 BKN049 26/16 A3007 RMK AO2 T02580155
                 =
2014-07-25 13:55 METAR KSHD 251755Z AUTO 05005KT 10SM SCT037 SCT044 25/15 A3008 RMK AO2 T02480147
                 10258 20182 =
2014-07-25 13:35 METAR KSHD 251735Z AUTO 00000KT 7SM SCT037 SCT046 24/14 A3009 RMK AO2 T02430141
                 =
2014-07-25 13:15 METAR KSHD 251715Z AUTO 00000KT 10SM SCT034 24/15 A3010 RMK AO2 T02440147 =
2014-07-25 12:55 METAR KSHD 251655Z AUTO 00000KT 7SM SCT032 SCT041 24/15 A3011 RMK AO2 T02400146
                 =
2014-07-25 12:35 METAR KSHD 251635Z AUTO 00000KT 10SM SCT030 SCT041 23/15 A3011 RMK AO2 T02340145
                 =
2014-07-25 12:15 METAR KSHD 251615Z AUTO 35004KT 10SM CLR 24/16 A3011 RMK AO2 T02360157 =
2014-07-25 11:55 METAR KSHD 251555Z AUTO 00000KT 10SM CLR 22/16 A3011 RMK AO2 T02240157 =
2014-07-25 11:35 METAR KSHD 251535Z AUTO 13003KT 10SM SCT018 22/16 A3012 RMK AO2 T02220163 =
2014-07-25 11:15 METAR KSHD 251515Z AUTO 01005KT 10SM BKN018 BKN055 22/16 A3013 RMK AO2 T02210164
                 =
2014-07-25 10:55 METAR KSHD 251455Z AUTO 06004KT 7SM BKN015 BKN021 BKN046 21/16 A3014 RMK AO2
                 T02140160 =
2014-07-25 10:35 METAR KSHD 251435Z AUTO 06004KT 7SM SCT013 SCT019 SCT049 21/17 A3014 RMK AO2
                 T02120167 =
2014-07-25 10:15 METAR KSHD 251415Z AUTO 06003KT 7SM SCT011 SCT049 20/16 A3014 RMK AO2 T02030163
                 =
2014-07-25 09:55 METAR KSHD 251355Z AUTO 06004KT 7SM SCT010 BKN047 20/16 A3014 RMK AO2 T01950160
                 =
2014-07-25 09:35 METAR KSHD 251335Z AUTO 03003KT 5SM HZ SCT010 BKN049 BKN060 20/16 A3013 RMK AO2
                 T01950160 =
2014-07-25 09:15 METAR KSHD 251315Z AUTO 05003KT 10SM SCT049 BKN060 19/15 A3014 RMK AO2 T01920152
                 =
2014-07-25 08:55 METAR KSHD 251255Z AUTO 00000KT 10SM OVC060 19/15 A3014 RMK AO2 T01900153 =
2014-07-25 08:35 METAR KSHD 251235Z AUTO 00000KT 10SM BKN060 19/15 A3013 RMK AO2 T01880154 =
2014-07-25 08:15 METAR KSHD 251215Z AUTO 00000KT 10SM BKN060 18/15 A3013 RMK AO2 T01820151 =
2014-07-25 07:55 METAR KSHD 251155Z AUTO 35005KT 10SM BKN060 18/15 A3012 RMK AO2 70016 T01810149
                 10191 20165 =
2014-07-25 07:35 METAR KSHD 251135Z AUTO 00000KT 10SM SCT060 18/15 A3011 RMK AO2 T01750146 =
2014-07-25 07:15 METAR KSHD 251115Z AUTO 00000KT 10SM SCT060 17/14 A3010 RMK AO2 T01680142 =
2014-07-25 06:55 METAR KSHD 251055Z AUTO 33003KT 10SM BKN060 17/14 A3009 RMK AO2 T01660143 =
2014-07-25 06:35 METAR KSHD 251035Z AUTO 00000KT 10SM BKN060 17/15 A3009 RMK AO2 T01700150 =
2014-07-25 06:15 METAR KSHD 251015Z AUTO 00000KT 7SM SCT004 OVC060 17/15 A3009 RMK AO2 T01740154
                 =
2014-07-25 05:55 METAR KSHD 250955Z AUTO 00000KT 7SM BKN004 OVC060 18/16 A3008 RMK AO2 T01760160
                 =
2014-07-25 05:35 METAR KSHD 250935Z AUTO 00000KT 7SM BKN006 OVC060 18/17 A3008 RMK AO2 T01820167
                 =
2014-07-25 05:15 METAR KSHD 250915Z AUTO 03003KT 5SM BR OVC006 19/17 A3007 RMK AO2 T01870173 =
2014-07-25 04:55 METAR KSHD 250855Z AUTO 00000KT 5SM BR OVC008 19/17 A3006 RMK AO2 T01870174 =
2014-07-25 04:35 METAR KSHD 250835Z AUTO 00000KT 4SM BR OVC008 19/18 A3006 RMK AO2 T01900176 =
2014-07-25 04:15 METAR KSHD 250815Z AUTO 00000KT 5SM BR OVC006 19/17 A3006 RMK AO2 T01900174 =
2014-07-25 03:55 METAR KSHD 250755Z AUTO 00000KT 5SM BR OVC006 19/18 A3005 RMK AO2 T01910177 =
2014-07-25 03:35 METAR KSHD 250735Z AUTO 00000KT 4SM BR OVC006 19/18 A3005 RMK AO2 T01910180 =
2014-07-25 03:15 METAR KSHD 250715Z AUTO 28003KT 3SM BR OVC006 19/18 A3005 RMK AO2 T01900180 =

Support USWX by starting your Amazon purchase here.